createdAt,value
2023-03-26T00:01:59.331Z,2.50
2023-03-26T00:05:02.043Z,2.60
2023-03-26T00:08:05.419Z,2.50
2023-03-26T00:11:10.579Z,3.80
2023-03-26T00:14:14.175Z,2.92
2023-03-26T00:17:17.001Z,2.57
2023-03-26T00:20:19.913Z,2.87
2023-03-26T00:23:22.641Z,2.30
2023-03-26T00:26:26.137Z,3.35
2023-03-26T00:29:28.987Z,4.03
2023-03-26T00:32:32.592Z,2.70
2023-03-26T00:35:38.921Z,3.43
2023-03-26T00:38:42.615Z,2.20
2023-03-26T00:41:45.330Z,3.17
2023-03-26T00:44:48.076Z,2.42
2023-03-26T00:47:50.893Z,3.03
2023-03-26T00:50:53.562Z,3.33
2023-03-26T00:53:56.754Z,3.63
2023-03-26T00:56:59.504Z,3.33
2023-03-26T01:00:16.133Z,2.60
2023-03-26T01:03:27.825Z,2.23
2023-03-26T01:06:36.519Z,2.40
2023-03-26T01:09:45.326Z,2.60
2023-03-26T01:12:47.949Z,2.22
2023-03-26T01:15:51.387Z,2.63
2023-03-26T01:18:54.890Z,3.47
2023-03-26T01:21:59.089Z,6.80
2023-03-26T01:25:01.844Z,2.67
2023-03-26T01:28:08.841Z,3.20
2023-03-26T01:31:38.882Z,3.65
2023-03-26T01:35:19.426Z,4.93
2023-03-26T01:38:52.202Z,6.27
2023-03-26T01:42:03.025Z,5.03
2023-03-26T01:45:16.774Z,4.47
2023-03-26T01:48:19.514Z,4.13
2023-03-26T01:51:31.075Z,4.17
2023-03-26T01:54:34.246Z,4.53
2023-03-26T01:57:56.169Z,5.18
2023-03-26T02:01:36.841Z,4.88
2023-03-26T02:05:02.244Z,4.05
2023-03-26T02:08:20.596Z,5.13
2023-03-26T02:11:23.449Z,4.73
2023-03-26T02:14:28.813Z,4.53
2023-03-26T02:17:32.817Z,4.05
2023-03-26T02:20:35.476Z,5.05
2023-03-26T02:23:47.652Z,5.03
2023-03-26T02:26:50.740Z,5.67
2023-03-26T02:29:53.586Z,7.00
2023-03-26T02:32:59.416Z,4.82
2023-03-26T02:36:08.987Z,4.88
2023-03-26T02:39:14.436Z,4.50
2023-03-26T02:42:21.918Z,4.23
2023-03-26T02:45:25.890Z,4.85
2023-03-26T02:48:37.815Z,4.72
2023-03-26T02:51:48.707Z,5.13
2023-03-26T02:55:01.845Z,8.33
2023-03-26T02:58:04.722Z,5.30
2023-03-26T03:01:13.681Z,6.55
2023-03-26T03:04:23.901Z,6.78
2023-03-26T03:07:26.689Z,7.03
2023-03-26T03:10:32.830Z,8.57
2023-03-26T03:13:40.791Z,5.67
2023-03-26T03:16:43.782Z,5.00
2023-03-26T03:19:47.248Z,8.95
2023-03-26T03:22:50.094Z,4.85
2023-03-26T03:25:53.138Z,6.37
2023-03-26T03:28:57.811Z,4.57
2023-03-26T03:32:00.668Z,4.93
2023-03-26T03:35:20.837Z,4.60
2023-03-26T03:38:27.656Z,5.82
2023-03-26T03:41:31.003Z,5.13
2023-03-26T03:44:36.195Z,4.97
2023-03-26T03:47:44.136Z,4.07
2023-03-26T03:50:48.054Z,5.00
2023-03-26T03:54:16.971Z,5.80
2023-03-26T03:57:22.659Z,6.23
2023-03-26T04:00:33.244Z,4.90
2023-03-26T04:03:55.941Z,5.70
2023-03-26T04:07:02.140Z,5.82
2023-03-26T04:10:16.494Z,5.43
2023-03-26T04:13:48.199Z,6.97
2023-03-26T04:17:02.385Z,6.57
2023-03-26T04:20:14.821Z,5.97
2023-03-26T04:23:19.618Z,4.65
2023-03-26T04:26:26.026Z,4.57
2023-03-26T04:29:49.974Z,6.93
2023-03-26T04:32:58.804Z,7.27
2023-03-26T04:36:04.249Z,7.20
2023-03-26T04:39:11.991Z,4.90
2023-03-26T04:42:49.844Z,7.38
2023-03-26T04:46:14.671Z,9.13
2023-03-26T04:49:25.527Z,5.90
2023-03-26T04:52:28.166Z,4.60
2023-03-26T04:55:44.202Z,5.18
2023-03-26T04:58:59.966Z,6.65
2023-03-26T05:02:05.768Z,5.70
2023-03-26T05:05:18.182Z,8.57
2023-03-26T05:08:21.091Z,6.65
2023-03-26T05:11:23.860Z,6.80
2023-03-26T05:14:26.734Z,6.47
2023-03-26T05:17:31.175Z,6.73
2023-03-26T05:20:34.422Z,6.90
2023-03-26T05:23:38.648Z,7.00
2023-03-26T05:26:48.467Z,9.35
2023-03-26T05:29:51.398Z,7.32
2023-03-26T05:32:54.095Z,9.27
2023-03-26T05:36:09.299Z,8.80
2023-03-26T05:39:14.376Z,7.68
2023-03-26T05:42:39.582Z,10.27
2023-03-26T05:45:59.942Z,7.82
2023-03-26T05:49:06.324Z,12.43
2023-03-26T05:52:15.250Z,8.50
2023-03-26T05:55:57.995Z,8.82
2023-03-26T05:59:19.713Z,8.02
2023-03-26T06:02:23.207Z,10.00
2023-03-26T06:05:44.835Z,8.67
2023-03-26T06:09:03.055Z,10.60
2023-03-26T06:12:07.785Z,9.77
2023-03-26T06:15:11.252Z,9.27
2023-03-26T06:18:26.628Z,8.70
2023-03-26T06:21:47.711Z,12.33
2023-03-26T06:24:55.399Z,8.27
2023-03-26T06:28:13.038Z,10.27
2023-03-26T06:31:17.425Z,9.77
2023-03-26T06:34:28.993Z,9.38
2023-03-26T06:37:31.987Z,9.63
2023-03-26T06:40:37.243Z,8.97
2023-03-26T06:43:58.440Z,10.43
2023-03-26T06:47:19.698Z,10.35
2023-03-26T06:50:41.010Z,8.52
2023-03-26T06:53:47.734Z,7.10
2023-03-26T06:57:05.991Z,6.53
2023-03-26T07:00:27.468Z,5.90
2023-03-26T07:04:00.012Z,6.53
2023-03-26T07:07:24.051Z,7.03
2023-03-26T07:10:45.670Z,6.87
2023-03-26T07:13:56.381Z,6.03
2023-03-26T07:17:17.575Z,6.15
2023-03-26T07:20:30.881Z,6.43
2023-03-26T07:23:33.739Z,5.50
2023-03-26T07:27:03.631Z,5.70
2023-03-26T07:30:17.810Z,5.63
2023-03-26T07:33:49.573Z,5.93
2023-03-26T07:37:30.921Z,6.68
2023-03-26T07:41:07.286Z,6.53
2023-03-26T07:44:45.510Z,6.13
2023-03-26T07:48:20.338Z,5.17
2023-03-26T07:51:49.178Z,3.90
2023-03-26T07:55:15.397Z,4.07
2023-03-26T07:58:49.669Z,4.40
2023-03-26T08:02:35.416Z,5.80
2023-03-26T08:06:18.312Z,5.57
2023-03-26T08:10:28.987Z,4.15
2023-03-26T08:13:57.207Z,4.15
2023-03-26T08:17:22.174Z,5.13
2023-03-26T08:20:51.702Z,3.43
2023-03-26T08:24:11.297Z,3.53
2023-03-26T08:27:37.909Z,3.70
2023-03-26T08:30:40.633Z,4.80
2023-03-26T08:33:43.875Z,4.97
2023-03-26T08:36:46.939Z,4.13
2023-03-26T08:39:49.637Z,3.97
2023-03-26T08:43:09.436Z,4.40
2023-03-26T08:46:18.718Z,10.85
2023-03-26T08:49:36.510Z,6.38
2023-03-26T08:52:53.317Z,12.33
2023-03-26T08:56:16.980Z,6.47
2023-03-26T08:59:46.341Z,6.78
2023-03-26T09:03:09.249Z,3.10
2023-03-26T09:06:48.660Z,4.65
2023-03-26T09:10:22.244Z,2.53
2023-03-26T09:13:50.180Z,3.97
2023-03-26T09:16:56.316Z,3.20
2023-03-26T09:20:16.881Z,2.85
2023-03-26T09:23:38.013Z,2.55
2023-03-26T09:26:56.352Z,2.77
2023-03-26T09:30:14.368Z,3.23
2023-03-26T09:33:38.882Z,3.83
2023-03-26T09:36:52.452Z,3.33
2023-03-26T09:40:15.521Z,3.83
2023-03-26T09:43:56.504Z,2.50
2023-03-26T09:47:22.472Z,3.20
2023-03-26T09:50:25.516Z,3.40
2023-03-26T09:53:43.266Z,2.65
2023-03-26T09:56:58.947Z,2.50
2023-03-26T10:00:16.135Z,3.50
2023-03-26T10:03:30.631Z,3.30
2023-03-26T10:07:05.284Z,3.05
2023-03-26T10:10:52.719Z,3.92
2023-03-26T10:14:09.597Z,2.90
2023-03-26T10:17:27.525Z,3.13
2023-03-26T10:21:04.976Z,2.97
2023-03-26T10:24:30.872Z,5.05
2023-03-26T10:27:36.148Z,2.50
2023-03-26T10:31:06.377Z,2.50
2023-03-26T10:34:28.976Z,3.10
2023-03-26T10:37:54.466Z,2.53
2023-03-26T10:41:16.379Z,3.15
2023-03-26T10:44:37.744Z,3.58
2023-03-26T10:48:18.821Z,3.20
2023-03-26T10:51:24.048Z,2.77
2023-03-26T10:54:48.134Z,3.40
2023-03-26T10:57:57.854Z,2.80
2023-03-26T11:01:10.550Z,18.33
2023-03-26T11:04:24.983Z,18.80
2023-03-26T11:07:50.908Z,5.70
2023-03-26T11:11:19.118Z,2.60
2023-03-26T11:14:34.906Z,2.70
2023-03-26T11:17:57.885Z,3.15
2023-03-26T11:21:21.027Z,2.40
2023-03-26T11:24:23.732Z,3.53
2023-03-26T11:27:50.569Z,2.40
2023-03-26T11:31:14.790Z,2.55
2023-03-26T11:34:21.641Z,2.28
2023-03-26T11:37:42.483Z,2.40
2023-03-26T11:40:50.854Z,2.40
2023-03-26T11:44:38.857Z,2.33
2023-03-26T11:47:52.380Z,2.60
2023-03-26T11:51:07.586Z,3.72
2023-03-26T11:54:12.809Z,3.42
2023-03-26T11:57:26.385Z,2.17
2023-03-26T12:00:29.898Z,3.80
2023-03-26T12:03:32.554Z,3.17
2023-03-26T12:06:35.357Z,3.55
2023-03-26T12:09:38.111Z,2.83
2023-03-26T12:12:42.315Z,2.20
2023-03-26T12:15:44.950Z,2.40
2023-03-26T12:19:18.759Z,2.55
2023-03-26T12:22:36.346Z,3.13
2023-03-26T12:25:39.321Z,4.35
2023-03-26T12:28:47.479Z,2.90
2023-03-26T12:32:13.950Z,1.80
2023-03-26T12:35:41.211Z,2.30
2023-03-26T12:38:46.141Z,2.03
2023-03-26T12:44:44.853Z,2.63
2023-03-26T12:47:46.120Z,3.30
2023-03-26T12:49:16.777Z,2.40
2023-03-26T12:52:33.461Z,2.78
2023-03-26T12:56:01.881Z,2.28
2023-03-26T12:59:25.783Z,3.78
2023-03-26T13:02:59.250Z,2.10
2023-03-26T13:06:05.074Z,2.90
2023-03-26T13:09:34.214Z,2.85
2023-03-26T13:12:54.606Z,3.55
2023-03-26T13:16:09.655Z,3.55
2023-03-26T13:19:12.344Z,4.17
2023-03-26T13:22:27.280Z,3.87
2023-03-26T13:25:42.345Z,3.15
2023-03-26T13:29:22.355Z,2.40
2023-03-26T13:32:51.159Z,3.63
2023-03-26T13:36:19.272Z,4.50
2023-03-26T13:39:57.883Z,2.90
2023-03-26T13:43:18.966Z,3.83
2023-03-26T13:46:45.019Z,2.95
2023-03-26T13:49:54.651Z,3.63
2023-03-26T13:53:17.361Z,4.33
2023-03-26T13:56:28.092Z,2.90
2023-03-26T13:59:36.248Z,3.10
2023-03-26T14:02:43.729Z,4.05
2023-03-26T14:05:50.200Z,2.60
2023-03-26T14:09:06.760Z,3.10
2023-03-26T14:12:21.782Z,2.70
2023-03-26T14:15:38.840Z,3.25
2023-03-26T14:18:47.008Z,4.32
2023-03-26T14:21:55.675Z,3.95
2023-03-26T14:25:26.315Z,7.17
2023-03-26T14:28:35.056Z,7.27
2023-03-26T14:32:34.404Z,5.32
2023-03-26T14:35:58.318Z,5.88
2023-03-26T14:39:42.966Z,3.50
2023-03-26T14:42:53.958Z,3.20
2023-03-26T14:46:00.828Z,3.70
2023-03-26T14:49:22.023Z,4.38
2023-03-26T14:52:41.581Z,4.50
2023-03-26T14:55:44.164Z,3.47
2023-03-26T14:58:49.846Z,4.63
2023-03-26T15:02:13.935Z,5.33
2023-03-26T15:05:40.970Z,3.20
2023-03-26T15:09:11.624Z,3.60
2023-03-26T15:12:43.186Z,3.30
2023-03-26T15:16:10.834Z,3.57
2023-03-26T15:19:46.089Z,3.77
2023-03-26T15:22:51.482Z,4.10
2023-03-26T15:26:10.036Z,4.60
2023-03-26T15:29:35.588Z,6.72
2023-03-26T15:33:05.368Z,3.50
2023-03-26T15:36:11.179Z,4.70
2023-03-26T15:39:32.533Z,5.38
2023-03-26T15:42:48.135Z,4.95
2023-03-26T15:46:12.615Z,4.65
2023-03-26T15:49:39.861Z,3.33
2023-03-26T15:53:07.685Z,4.20
2023-03-26T15:56:22.373Z,6.35
2023-03-26T15:59:34.845Z,5.32
2023-03-26T16:02:50.417Z,5.68
2023-03-26T16:06:06.788Z,3.90
2023-03-26T16:09:32.778Z,5.07
2023-03-26T16:12:56.797Z,7.97
2023-03-26T16:16:07.128Z,11.60
2023-03-26T16:19:19.293Z,10.90
2023-03-26T16:22:55.028Z,11.03
2023-03-26T16:26:13.367Z,11.00
2023-03-26T16:29:28.738Z,14.75
2023-03-26T16:32:40.463Z,14.40
2023-03-26T16:36:20.893Z,12.73
2023-03-26T16:39:40.973Z,11.03
2023-03-26T16:43:12.216Z,11.83
2023-03-26T16:46:34.592Z,10.10
2023-03-26T16:50:08.208Z,10.85
2023-03-26T16:53:59.749Z,11.07
2023-03-26T16:57:20.181Z,11.00
2023-03-26T17:00:34.789Z,14.27
2023-03-26T17:03:49.267Z,10.35
2023-03-26T17:06:56.735Z,7.60
2023-03-26T17:10:05.950Z,9.65
2023-03-26T17:13:23.344Z,7.63
2023-03-26T17:16:40.906Z,6.13
2023-03-26T17:20:21.158Z,7.28
2023-03-26T17:23:26.806Z,22.25
2023-03-26T17:27:13.659Z,20.13
2023-03-26T17:30:32.465Z,17.70
2023-03-26T17:33:38.728Z,16.37
2023-03-26T17:36:43.022Z,24.98
2023-03-26T17:39:48.772Z,34.08
2023-03-26T17:43:03.375Z,32.17
2023-03-26T17:46:33.435Z,21.13
2023-03-26T17:49:37.556Z,14.63
2023-03-26T17:52:50.249Z,11.27
2023-03-26T17:55:53.913Z,11.68
2023-03-26T17:59:11.892Z,8.40
2023-03-26T18:02:27.873Z,10.60
2023-03-26T18:05:31.299Z,22.57
2023-03-26T18:08:58.613Z,10.40
2023-03-26T18:12:21.146Z,6.47
2023-03-26T18:15:45.677Z,10.25
2023-03-26T18:18:57.288Z,6.47
2023-03-26T18:22:06.175Z,6.00
2023-03-26T18:25:22.903Z,5.25
2023-03-26T18:28:31.169Z,5.22
2023-03-26T18:31:34.072Z,15.63
2023-03-26T18:34:46.655Z,24.40
2023-03-26T18:37:52.084Z,16.63
2023-03-26T18:40:56.225Z,24.30
2023-03-26T18:44:04.350Z,26.77
2023-03-26T18:47:09.807Z,27.83
2023-03-26T18:50:16.347Z,21.77
2023-03-26T18:53:22.193Z,21.83
2023-03-26T18:56:31.513Z,10.30
2023-03-26T18:59:38.109Z,11.77
2023-03-26T19:02:44.648Z,9.77
2023-03-26T19:05:47.988Z,8.13
2023-03-26T19:08:51.364Z,10.40
2023-03-26T19:11:59.188Z,7.15
2023-03-26T19:15:16.714Z,9.32
2023-03-26T19:18:24.132Z,8.93
2023-03-26T19:21:27.029Z,9.80
2023-03-26T19:24:29.960Z,15.87
2023-03-26T19:27:33.079Z,11.30
2023-03-26T19:30:39.468Z,14.07
2023-03-26T19:33:44.089Z,17.23
2023-03-26T19:37:01.131Z,18.60
2023-03-26T19:40:14.827Z,10.33
2023-03-26T19:43:17.838Z,13.02
2023-03-26T19:46:25.614Z,10.50
2023-03-26T19:49:41.380Z,10.95
2023-03-26T19:52:45.260Z,13.63
2023-03-26T19:55:58.884Z,15.03
2023-03-26T19:59:02.546Z,9.23
2023-03-26T20:02:11.035Z,7.47
2023-03-26T20:05:25.492Z,5.25
2023-03-26T20:08:28.487Z,4.97
2023-03-26T20:11:38.169Z,5.50
2023-03-26T20:14:43.417Z,5.30
2023-03-26T20:17:47.207Z,6.13
2023-03-26T20:20:50.645Z,5.82
2023-03-26T20:23:53.732Z,6.27
2023-03-26T20:26:56.501Z,7.00
2023-03-26T20:29:59.415Z,7.47
2023-03-26T20:33:12.128Z,8.13
2023-03-26T20:36:34.077Z,7.20
2023-03-26T20:39:38.159Z,6.10
2023-03-26T20:42:42.703Z,4.73
2023-03-26T20:45:45.961Z,6.25
2023-03-26T20:48:49.584Z,6.35
2023-03-26T20:51:52.780Z,7.10
2023-03-26T20:54:55.480Z,8.80
2023-03-26T20:57:58.192Z,8.53
2023-03-26T21:01:02.372Z,6.97
2023-03-26T21:04:05.652Z,10.00
2023-03-26T21:07:17.829Z,11.73
2023-03-26T21:10:22.005Z,8.17
2023-03-26T21:14:11.352Z,7.27
2023-03-26T21:17:19.486Z,6.72
2023-03-26T21:20:23.672Z,8.05
2023-03-26T21:23:49.288Z,8.10
2023-03-26T21:27:10.861Z,7.27
2023-03-26T21:30:16.515Z,7.37
2023-03-26T21:33:20.033Z,10.60
2023-03-26T21:36:23.236Z,8.82
2023-03-26T21:39:27.972Z,7.53
2023-03-26T21:42:30.809Z,9.13
2023-03-26T21:45:34.192Z,7.60
2023-03-26T21:48:37.314Z,6.30
2023-03-26T21:51:40.480Z,7.55
2023-03-26T21:54:43.511Z,8.40
2023-03-26T21:57:46.134Z,8.27
2023-03-26T22:01:20.403Z,6.30
2023-03-26T22:04:36.846Z,7.88
2023-03-26T22:07:56.142Z,7.55
2023-03-26T22:10:58.910Z,8.98
2023-03-26T22:14:01.791Z,9.50
2023-03-26T22:17:05.214Z,9.97
2023-03-26T22:20:12.620Z,8.25
2023-03-26T22:23:16.742Z,8.30
2023-03-26T22:26:21.965Z,8.38
2023-03-26T22:29:24.848Z,5.33
2023-03-26T22:32:33.067Z,8.37
2023-03-26T22:35:35.784Z,9.43
2023-03-26T22:38:38.947Z,6.57
2023-03-26T22:41:41.669Z,6.90
2023-03-26T22:44:44.239Z,9.33
2023-03-26T22:47:46.995Z,10.20
2023-03-26T22:51:04.212Z,6.75
2023-03-26T22:54:06.767Z,6.03
2023-03-26T22:57:09.383Z,7.32
2023-03-26T23:00:16.487Z,6.47
2023-03-26T23:03:20.706Z,6.00
2023-03-26T23:06:38.054Z,7.28
2023-03-26T23:09:40.629Z,6.15
2023-03-26T23:12:43.237Z,5.28
2023-03-26T23:15:47.773Z,4.57
2023-03-26T23:18:50.471Z,6.47
2023-03-26T23:21:53.094Z,6.13
2023-03-26T23:24:55.838Z,5.97
2023-03-26T23:27:58.589Z,6.28
2023-03-26T23:31:04.430Z,6.30
2023-03-26T23:34:06.985Z,6.00
2023-03-26T23:37:11.154Z,5.22
2023-03-26T23:40:13.874Z,7.55
2023-03-26T23:43:17.235Z,5.43
2023-03-26T23:46:23.893Z,5.73
2023-03-26T23:49:27.129Z,6.37
2023-03-26T23:52:30.479Z,5.05
